createdAt,value
2018-09-19T00:02:20.177Z,4.70
2018-09-19T00:04:48.389Z,4.47
2018-09-19T00:07:16.556Z,4.53
2018-09-19T00:09:44.713Z,4.30
2018-09-19T00:12:12.863Z,4.57
2018-09-19T00:14:41.046Z,5.17
2018-09-19T00:17:09.246Z,4.43
2018-09-19T00:19:37.397Z,5.03
2018-09-19T00:22:05.536Z,4.70
2018-09-19T00:24:33.733Z,4.30
2018-09-19T00:27:01.901Z,4.27
2018-09-19T00:29:30.058Z,4.63
2018-09-19T00:31:58.201Z,4.57
2018-09-19T00:34:26.362Z,4.63
2018-09-19T00:36:54.530Z,3.87
2018-09-19T00:39:22.682Z,4.10
2018-09-19T00:41:50.827Z,3.90
2018-09-19T00:44:18.962Z,4.40
2018-09-19T00:46:47.152Z,3.77
2018-09-19T00:49:15.289Z,4.10
2018-09-19T00:51:43.434Z,4.00
2018-09-19T00:54:11.577Z,4.03
2018-09-19T00:56:39.751Z,3.70
2018-09-19T00:59:07.925Z,4.30
2018-09-19T01:01:36.072Z,4.30
2018-09-19T01:04:04.252Z,3.90
2018-09-19T01:06:32.417Z,3.50
2018-09-19T01:09:00.553Z,4.03
2018-09-19T01:11:28.710Z,3.90
2018-09-19T01:13:56.867Z,4.10
2018-09-19T01:16:25.013Z,4.17
2018-09-19T01:18:53.163Z,3.90
2018-09-19T01:21:21.310Z,4.00
2018-09-19T01:23:49.461Z,3.30
2018-09-19T01:26:17.614Z,3.70
2018-09-19T01:28:45.753Z,3.97
2018-09-19T01:31:13.906Z,4.10
2018-09-19T01:33:42.062Z,3.43
2018-09-19T01:36:10.221Z,3.90
2018-09-19T01:38:38.360Z,3.50
2018-09-19T01:41:06.689Z,3.60
2018-09-19T01:43:34.834Z,3.70
2018-09-19T01:46:03.177Z,3.80
2018-09-19T01:48:31.330Z,4.50
2018-09-19T01:50:59.471Z,4.10
2018-09-19T01:53:27.615Z,4.67
2018-09-19T01:55:55.766Z,4.40
2018-09-19T01:58:23.958Z,4.00
2018-09-19T02:00:52.104Z,4.50
2018-09-19T02:03:20.265Z,5.13
2018-09-19T02:05:48.375Z,3.70
2018-09-19T02:08:16.467Z,4.57
2018-09-19T02:10:44.570Z,3.60
2018-09-19T02:13:12.781Z,4.23
2018-09-19T02:15:40.870Z,4.73
2018-09-19T02:18:08.989Z,4.20
2018-09-19T02:20:37.096Z,3.80
2018-09-19T02:23:05.332Z,3.50
2018-09-19T02:25:33.441Z,4.20
2018-09-19T02:28:01.621Z,4.00
2018-09-19T02:30:29.741Z,4.33
2018-09-19T02:32:57.848Z,4.40
2018-09-19T02:35:25.974Z,4.63
2018-09-19T02:37:54.081Z,5.00
2018-09-19T02:40:22.210Z,4.33
2018-09-19T02:42:50.326Z,3.17
2018-09-19T02:45:18.438Z,4.37
2018-09-19T02:47:46.537Z,5.20
2018-09-19T02:50:14.655Z,4.80
2018-09-19T02:52:42.785Z,4.60
2018-09-19T02:55:10.879Z,5.23
2018-09-19T02:57:38.994Z,4.47
2018-09-19T03:00:07.159Z,4.90
2018-09-19T03:02:35.290Z,4.63
2018-09-19T03:05:03.459Z,4.53
2018-09-19T03:07:31.603Z,3.83
2018-09-19T03:09:59.767Z,4.67
2018-09-19T03:12:27.897Z,4.70
2018-09-19T03:14:56.056Z,4.67
2018-09-19T03:17:24.309Z,4.20
2018-09-19T03:19:52.338Z,4.77
2018-09-19T03:22:20.487Z,5.20
2018-09-19T03:24:48.625Z,5.00
2018-09-19T03:27:16.853Z,5.10
2018-09-19T03:29:44.997Z,5.17
2018-09-19T03:32:13.142Z,4.37
2018-09-19T03:34:41.283Z,5.07
2018-09-19T03:37:09.421Z,4.37
2018-09-19T03:39:37.570Z,4.17
2018-09-19T03:42:05.809Z,4.50
2018-09-19T03:44:33.977Z,5.40
2018-09-19T03:47:02.120Z,4.80
2018-09-19T03:49:30.266Z,6.00
2018-09-19T03:51:58.429Z,4.97
2018-09-19T03:54:26.568Z,5.13
2018-09-19T03:56:54.717Z,5.07
2018-09-19T03:59:22.875Z,4.70
2018-09-19T04:01:51.125Z,5.40
2018-09-19T04:04:19.232Z,5.83
2018-09-19T04:06:47.349Z,5.60
2018-09-19T04:09:15.473Z,5.73
2018-09-19T04:11:43.576Z,4.50
2018-09-19T04:14:12.310Z,5.33
2018-09-19T04:16:40.807Z,5.07
2018-09-19T04:19:08.915Z,6.07
2018-09-19T04:21:41.285Z,5.27
2018-09-19T04:24:09.426Z,5.67
2018-09-19T04:26:37.538Z,5.97
2018-09-19T04:29:05.662Z,5.60
2018-09-19T04:31:33.785Z,5.87
2018-09-19T04:34:01.895Z,5.70
2018-09-19T04:36:30.164Z,4.57
2018-09-19T04:38:58.284Z,5.53
2018-09-19T04:41:26.381Z,5.10
2018-09-19T04:43:54.493Z,5.67
2018-09-19T04:46:22.613Z,4.73
2018-09-19T04:48:50.734Z,5.80
2018-09-19T04:51:19.124Z,5.20
2018-09-19T04:53:47.306Z,5.50
2018-09-19T04:56:15.398Z,4.73
2018-09-19T04:58:43.510Z,5.93
2018-09-19T05:01:11.659Z,5.83
2018-09-19T05:03:39.804Z,6.10
2018-09-19T05:06:07.961Z,5.73
2018-09-19T05:08:36.136Z,6.10
2018-09-19T05:11:04.278Z,6.47
2018-09-19T05:13:32.437Z,5.70
2018-09-19T05:16:00.571Z,6.00
2018-09-19T05:18:28.719Z,6.30
2018-09-19T05:20:56.866Z,6.23
2018-09-19T05:23:25.023Z,6.57
2018-09-19T05:25:53.159Z,6.40
2018-09-19T05:28:21.538Z,6.27
2018-09-19T05:30:49.680Z,6.17
2018-09-19T05:33:17.841Z,6.47
2018-09-19T05:35:45.982Z,5.90
2018-09-19T05:38:14.151Z,6.40
2018-09-19T05:40:42.297Z,6.13
2018-09-19T05:43:10.449Z,5.83
2018-09-19T05:45:38.592Z,5.93
2018-09-19T05:48:06.773Z,6.17
2018-09-19T05:50:34.918Z,6.63
2018-09-19T05:53:03.091Z,6.80
2018-09-19T05:55:31.256Z,7.00
2018-09-19T05:57:59.406Z,7.50
2018-09-19T06:00:27.563Z,6.67
2018-09-19T06:02:55.710Z,7.47
2018-09-19T06:05:23.952Z,7.40
2018-09-19T06:07:52.106Z,7.23
2018-09-19T06:10:20.255Z,6.00
2018-09-19T06:12:48.539Z,5.43
2018-09-19T06:15:16.642Z,6.20
2018-09-19T06:17:44.794Z,6.90
2018-09-19T06:20:12.941Z,6.30
2018-09-19T06:22:41.090Z,6.20
2018-09-19T06:25:09.251Z,6.17
2018-09-19T06:27:37.394Z,6.80
2018-09-19T06:30:05.943Z,7.30
2018-09-19T06:32:34.097Z,6.63
2018-09-19T06:35:02.257Z,5.20
2018-09-19T06:37:30.400Z,6.07
2018-09-19T06:39:58.611Z,7.90
2018-09-19T06:42:26.707Z,6.00
2018-09-19T06:44:54.878Z,6.17
2018-09-19T06:47:23.030Z,6.80
2018-09-19T06:49:51.177Z,6.70
2018-09-19T06:52:19.400Z,6.77
2018-09-19T06:54:47.512Z,6.07
2018-09-19T06:57:15.654Z,7.20
2018-09-19T06:59:43.850Z,6.40
2018-09-19T07:02:11.932Z,4.90
2018-09-19T07:04:40.038Z,6.53
2018-09-19T07:07:08.155Z,5.47
2018-09-19T07:09:36.618Z,6.27
2018-09-19T07:12:04.734Z,5.30
2018-09-19T07:14:32.927Z,6.00
2018-09-19T07:17:01.037Z,5.90
2018-09-19T07:19:29.179Z,5.73
2018-09-19T07:21:57.286Z,6.57
2018-09-19T07:24:25.385Z,5.73
2018-09-19T07:26:53.497Z,6.30
2018-09-19T07:29:21.608Z,5.10
2018-09-19T07:31:49.754Z,6.23
2018-09-19T07:34:17.856Z,5.83
2018-09-19T07:36:45.983Z,6.53
2018-09-19T07:39:14.095Z,6.53
2018-09-19T07:41:42.208Z,7.13
2018-09-19T07:44:10.318Z,6.10
2018-09-19T07:46:38.446Z,6.93
2018-09-19T07:49:06.569Z,6.93
2018-09-19T07:51:34.725Z,6.40
2018-09-19T07:54:02.834Z,6.80
2018-09-19T07:56:30.998Z,6.67
2018-09-19T07:58:59.095Z,6.33
2018-09-19T08:01:27.245Z,6.47
2018-09-19T08:03:55.407Z,6.50
2018-09-19T08:06:23.560Z,5.50
2018-09-19T08:08:51.714Z,4.57
2018-09-19T08:11:19.868Z,6.00
2018-09-19T08:13:48.017Z,6.90
2018-09-19T08:16:16.169Z,5.37
2018-09-19T08:18:44.318Z,6.17
2018-09-19T08:21:12.477Z,5.63
2018-09-19T08:23:40.640Z,5.90
2018-09-19T08:26:08.779Z,4.70
2018-09-19T08:28:36.945Z,5.97
2018-09-19T08:31:05.230Z,5.13
2018-09-19T08:33:33.650Z,6.10
2018-09-19T08:36:01.797Z,5.50
2018-09-19T08:38:29.951Z,5.30
2018-09-19T08:40:58.100Z,5.23
2018-09-19T08:43:26.251Z,5.47
2018-09-19T08:45:54.405Z,5.63
2018-09-19T08:48:22.554Z,5.80
2018-09-19T08:50:50.711Z,5.43
2018-09-19T08:53:18.853Z,5.10
2018-09-19T08:55:47.004Z,5.13
2018-09-19T08:58:15.177Z,5.73
2018-09-19T09:00:43.348Z,5.57
2018-09-19T09:03:11.460Z,5.50
2018-09-19T09:05:39.575Z,4.67
2018-09-19T09:08:07.922Z,5.20
2018-09-19T09:10:36.075Z,4.53
2018-09-19T09:13:04.173Z,4.97
2018-09-19T09:15:32.291Z,5.10
2018-09-19T09:18:00.400Z,4.37
2018-09-19T09:20:28.581Z,4.67
2018-09-19T09:22:56.635Z,4.90
2018-09-19T09:25:24.755Z,5.33
2018-09-19T09:27:52.887Z,4.27
2018-09-19T09:30:21.031Z,3.97
2018-09-19T09:32:49.139Z,4.50
2018-09-19T09:35:17.354Z,3.80
2018-09-19T09:37:45.471Z,4.53
2018-09-19T09:40:13.632Z,3.93
2018-09-19T09:42:41.710Z,4.03
2018-09-19T09:45:09.835Z,4.60
2018-09-19T09:47:37.956Z,4.40
2018-09-19T09:50:06.256Z,3.77
2018-09-19T09:52:34.362Z,3.83
2018-09-19T09:55:02.518Z,4.03
2018-09-19T09:57:30.581Z,4.20
2018-09-19T09:59:58.697Z,4.83
2018-09-19T10:02:26.854Z,4.40
2018-09-19T10:04:55.033Z,4.13
2018-09-19T10:07:23.178Z,4.30
2018-09-19T10:09:51.318Z,4.23
2018-09-19T10:12:19.470Z,3.90
2018-09-19T10:14:47.617Z,4.33
2018-09-19T10:17:15.831Z,4.87
2018-09-19T10:19:43.986Z,5.13
2018-09-19T10:22:12.134Z,4.43
2018-09-19T10:24:40.366Z,4.60
2018-09-19T10:27:08.515Z,4.10
2018-09-19T10:29:36.713Z,4.43
2018-09-19T10:32:04.819Z,4.10
2018-09-19T10:34:32.971Z,4.20
2018-09-19T10:37:01.150Z,4.60
2018-09-19T10:39:29.301Z,4.80
2018-09-19T10:41:57.442Z,5.50
2018-09-19T10:44:25.603Z,5.40
2018-09-19T10:46:53.763Z,4.80
2018-09-19T10:49:21.930Z,4.43
2018-09-19T10:51:50.067Z,5.77
2018-09-19T10:54:18.356Z,5.00
2018-09-19T10:56:46.546Z,5.80
2018-09-19T10:59:14.641Z,4.97
2018-09-19T11:01:42.773Z,5.43
2018-09-19T11:04:10.954Z,6.43
2018-09-19T11:06:39.097Z,4.50
2018-09-19T11:09:08.986Z,6.03
2018-09-19T11:11:37.222Z,5.80
2018-09-19T11:14:05.361Z,5.63
2018-09-19T11:16:33.731Z,5.20
2018-09-19T11:19:01.978Z,6.20
2018-09-19T11:21:30.357Z,5.37
2018-09-19T11:23:58.462Z,5.40
2018-09-19T11:26:26.605Z,5.07
2018-09-19T11:28:54.927Z,5.00
2018-09-19T11:31:23.055Z,4.93
2018-09-19T11:33:51.163Z,4.80
2018-09-19T11:36:19.289Z,5.07
2018-09-19T11:38:47.403Z,4.30
2018-09-19T11:41:15.518Z,4.27
2018-09-19T11:43:43.618Z,4.50
2018-09-19T11:46:11.738Z,4.70
2018-09-19T11:48:39.854Z,4.60
2018-09-19T11:51:07.970Z,4.10
2018-09-19T11:53:36.096Z,4.63
2018-09-19T11:56:04.194Z,4.40
2018-09-19T11:58:32.322Z,4.37
2018-09-19T12:01:00.429Z,4.47
2018-09-19T12:03:29.180Z,4.53
2018-09-19T12:05:57.311Z,4.40
2018-09-19T12:08:25.454Z,5.13
2018-09-19T12:10:53.594Z,4.23
2018-09-19T12:13:21.742Z,3.90
2018-09-19T12:15:49.877Z,3.60
2018-09-19T12:18:18.033Z,4.00
2018-09-19T12:20:46.166Z,4.13
2018-09-19T12:23:14.398Z,3.97
2018-09-19T12:25:42.538Z,4.47
2018-09-19T12:28:10.690Z,5.40
2018-09-19T12:30:38.826Z,4.10
2018-09-19T12:33:06.983Z,4.23
2018-09-19T12:35:35.122Z,4.80
2018-09-19T12:38:03.275Z,4.00
2018-09-19T12:40:31.413Z,4.27
2018-09-19T12:42:59.709Z,4.00
2018-09-19T12:45:27.842Z,4.00
2018-09-19T12:47:55.998Z,5.03
2018-09-19T12:50:24.147Z,4.63
2018-09-19T12:52:52.298Z,4.33
2018-09-19T12:55:20.439Z,4.17
2018-09-19T12:57:48.589Z,4.07
2018-09-19T13:00:16.744Z,4.27
2018-09-19T13:02:44.975Z,4.10
2018-09-19T13:05:13.110Z,4.30
2018-09-19T13:07:41.245Z,3.60
2018-09-19T13:10:09.394Z,4.30
2018-09-19T13:12:37.530Z,4.00
2018-09-19T13:15:05.690Z,3.93
2018-09-19T13:17:33.838Z,4.50
2018-09-19T13:20:02.013Z,4.53
2018-09-19T13:22:30.150Z,4.00
2018-09-19T13:24:58.311Z,4.00
2018-09-19T13:27:26.467Z,4.10
2018-09-19T13:29:54.590Z,4.50
2018-09-19T13:32:22.726Z,4.70
2018-09-19T13:34:50.877Z,5.03
2018-09-19T13:37:19.014Z,4.50
2018-09-19T13:39:47.232Z,4.20
2018-09-19T13:42:15.356Z,4.77
2018-09-19T13:44:43.507Z,4.47
2018-09-19T13:47:11.646Z,5.17
2018-09-19T13:49:44.208Z,4.27
2018-09-19T13:52:12.349Z,4.57
2018-09-19T13:54:40.522Z,4.27
2018-09-19T13:57:08.774Z,4.57
2018-09-19T13:59:36.915Z,4.20
2018-09-19T14:02:05.033Z,4.50
2018-09-19T14:04:33.159Z,4.80
2018-09-19T14:07:01.301Z,4.40
2018-09-19T14:09:29.405Z,5.10
2018-09-19T14:11:57.526Z,4.77
2018-09-19T14:14:25.637Z,4.53
2018-09-19T14:16:53.850Z,4.50
2018-09-19T14:19:21.949Z,4.30
2018-09-19T14:21:50.061Z,5.07
2018-09-19T14:24:18.167Z,5.00
2018-09-19T14:26:46.296Z,4.53
2018-09-19T14:29:14.390Z,4.70
2018-09-19T14:31:42.514Z,4.70
2018-09-19T14:34:10.614Z,4.50
2018-09-19T14:36:38.732Z,4.37
2018-09-19T14:39:07.444Z,4.50
2018-09-19T14:41:35.554Z,4.27
2018-09-19T14:44:03.666Z,4.70
2018-09-19T14:46:31.795Z,4.70
2018-09-19T14:48:59.926Z,5.00
2018-09-19T14:51:28.046Z,4.13
2018-09-19T14:53:56.150Z,5.43
2018-09-19T14:56:24.262Z,4.20
2018-09-19T14:58:52.387Z,4.40
2018-09-19T15:01:20.562Z,4.60
2018-09-19T15:03:48.711Z,4.47
2018-09-19T15:06:16.846Z,4.20
2018-09-19T15:08:44.995Z,4.50
2018-09-19T15:11:13.139Z,4.60
2018-09-19T15:13:41.285Z,4.47
2018-09-19T15:16:09.893Z,4.90
2018-09-19T15:18:38.186Z,4.10
2018-09-19T15:21:06.326Z,4.90
2018-09-19T15:23:34.497Z,4.10
2018-09-19T15:26:02.635Z,4.40
2018-09-19T15:28:30.819Z,4.60
2018-09-19T15:30:58.926Z,4.57
2018-09-19T15:33:27.074Z,4.10
2018-09-19T15:35:55.270Z,4.33
2018-09-19T15:38:23.462Z,4.20
2018-09-19T15:40:51.570Z,4.40
2018-09-19T15:43:19.722Z,3.97
2018-09-19T15:45:47.859Z,4.50
2018-09-19T15:48:16.007Z,4.70
2018-09-19T15:50:44.142Z,4.17
2018-09-19T15:53:12.291Z,4.00
2018-09-19T15:55:40.500Z,4.43
2018-09-19T15:58:08.606Z,4.00
2018-09-19T16:00:36.762Z,4.53
2018-09-19T16:03:04.890Z,5.00
2018-09-19T16:05:33.007Z,4.10
2018-09-19T16:08:01.119Z,4.17
2018-09-19T16:10:29.230Z,4.37
2018-09-19T16:12:57.336Z,3.73
2018-09-19T16:15:25.450Z,4.00
2018-09-19T16:17:53.582Z,3.93
2018-09-19T16:20:22.031Z,4.07
2018-09-19T16:22:50.145Z,4.50
2018-09-19T16:25:18.282Z,4.13
2018-09-19T16:27:46.482Z,3.90
2018-09-19T16:30:14.594Z,4.40
2018-09-19T16:32:42.706Z,4.10
2018-09-19T16:35:10.818Z,4.43
2018-09-19T16:37:38.917Z,3.90
2018-09-19T16:40:07.030Z,3.97
2018-09-19T16:42:35.130Z,4.17
2018-09-19T16:45:03.239Z,3.93
2018-09-19T16:47:31.346Z,3.90
2018-09-19T16:49:59.483Z,3.83
2018-09-19T16:52:27.598Z,4.03
2018-09-19T16:54:55.757Z,3.37
2018-09-19T16:57:23.863Z,3.57
2018-09-19T16:59:52.902Z,3.93
2018-09-19T17:02:21.046Z,4.27
2018-09-19T17:04:49.267Z,3.90
2018-09-19T17:07:17.422Z,4.40
2018-09-19T17:09:45.563Z,3.90
2018-09-19T17:12:13.719Z,4.00
2018-09-19T17:14:41.980Z,3.40
2018-09-19T17:17:10.122Z,3.60
2018-09-19T17:19:38.298Z,4.00
2018-09-19T17:22:06.703Z,3.87
2018-09-19T17:24:34.811Z,4.20
2018-09-19T17:27:02.926Z,3.90
2018-09-19T17:29:31.038Z,4.13
2018-09-19T17:31:59.152Z,3.83
2018-09-19T17:34:27.265Z,3.80
2018-09-19T17:36:55.374Z,4.40
2018-09-19T17:39:23.474Z,3.83
2018-09-19T17:41:51.595Z,5.27
2018-09-19T17:44:19.719Z,3.77
2018-09-19T17:46:47.830Z,3.83
2018-09-19T17:49:15.933Z,4.07
2018-09-19T17:51:44.070Z,3.87
2018-09-19T17:54:12.178Z,4.23
2018-09-19T17:56:40.298Z,4.50
2018-09-19T17:59:08.463Z,4.40
2018-09-19T18:01:36.605Z,4.00
2018-09-19T18:04:04.770Z,4.77
2018-09-19T18:06:32.927Z,4.53
2018-09-19T18:09:01.090Z,4.57
2018-09-19T18:11:29.450Z,3.77
2018-09-19T18:13:57.596Z,4.10
2018-09-19T18:16:25.742Z,5.00
2018-09-19T18:18:53.911Z,4.80
2018-09-19T18:21:22.087Z,5.10
2018-09-19T18:23:50.497Z,4.83
2018-09-19T18:26:18.645Z,4.93
2018-09-19T18:28:46.815Z,5.37
2018-09-19T18:31:14.970Z,4.53
2018-09-19T18:33:43.115Z,4.60
2018-09-19T18:36:11.249Z,5.03
2018-09-19T18:38:39.402Z,4.13
2018-09-19T18:41:07.571Z,5.27
2018-09-19T18:43:35.717Z,4.80
2018-09-19T18:46:03.866Z,6.43
2018-09-19T18:48:32.016Z,4.90
2018-09-19T18:51:00.202Z,4.33
2018-09-19T18:53:28.335Z,5.23
2018-09-19T18:55:56.553Z,4.87
2018-09-19T18:58:24.685Z,5.33
2018-09-19T19:00:52.842Z,4.73
2018-09-19T19:03:20.983Z,4.90
2018-09-19T19:05:49.088Z,4.40
2018-09-19T19:08:17.194Z,4.83
2018-09-19T19:10:45.311Z,4.60
2018-09-19T19:13:13.418Z,5.70
2018-09-19T19:15:41.533Z,4.40
2018-09-19T19:18:09.693Z,4.80
2018-09-19T19:20:37.823Z,5.00
2018-09-19T19:23:05.955Z,4.60
2018-09-19T19:25:34.078Z,5.67
2018-09-19T19:28:02.206Z,5.33
2018-09-19T19:30:30.481Z,5.03
2018-09-19T19:32:58.470Z,5.80
2018-09-19T19:35:26.649Z,6.00
2018-09-19T19:37:54.854Z,4.73
2018-09-19T19:40:22.987Z,5.73
2018-09-19T19:42:51.115Z,6.03
2018-09-19T19:45:19.331Z,5.73
2018-09-19T19:47:47.527Z,4.90
2018-09-19T19:50:15.709Z,5.40
2018-09-19T19:52:43.883Z,5.50
2018-09-19T19:55:12.044Z,5.03
2018-09-19T19:57:40.185Z,6.07
2018-09-19T20:00:08.302Z,5.30
2018-09-19T20:02:36.450Z,5.97
2018-09-19T20:05:04.594Z,5.43
2018-09-19T20:07:32.722Z,5.93
2018-09-19T20:10:00.833Z,5.97
2018-09-19T20:12:29.073Z,6.27
2018-09-19T20:14:57.171Z,6.30
2018-09-19T20:17:25.307Z,5.77
2018-09-19T20:19:53.474Z,5.77
2018-09-19T20:22:21.582Z,6.37
2018-09-19T20:24:49.727Z,6.27
2018-09-19T20:27:17.892Z,6.40
2018-09-19T20:29:46.026Z,6.10
2018-09-19T20:32:14.154Z,6.30
2018-09-19T20:34:42.266Z,5.73
2018-09-19T20:37:10.414Z,5.90
2018-09-19T20:39:38.529Z,6.30
2018-09-19T20:42:06.695Z,6.13
2018-09-19T20:44:34.821Z,7.17
2018-09-19T20:47:02.971Z,5.77
2018-09-19T20:49:31.086Z,5.70
2018-09-19T20:51:59.195Z,6.97
2018-09-19T20:57:18.074Z,6.30
2018-09-19T20:59:46.248Z,6.10
2018-09-19T21:02:14.391Z,6.30
2018-09-19T21:04:42.567Z,5.40
2018-09-19T21:07:10.755Z,5.67
2018-09-19T21:09:38.891Z,5.60
2018-09-19T21:12:13.409Z,5.43
2018-09-19T21:14:41.546Z,5.80
2018-09-19T21:17:09.678Z,4.93
2018-09-19T21:19:37.831Z,6.10
2018-09-19T21:22:06.068Z,5.47
2018-09-19T21:24:34.115Z,6.10
2018-09-19T21:27:02.249Z,5.33
2018-09-19T21:29:30.393Z,5.60
2018-09-19T21:31:58.534Z,4.57
2018-09-19T21:34:26.746Z,5.07
2018-09-19T21:36:54.811Z,5.07
2018-09-19T21:39:22.989Z,5.90
2018-09-19T21:41:51.086Z,5.70
2018-09-19T21:44:19.527Z,5.90
2018-09-19T21:46:47.658Z,5.10
2018-09-19T21:49:15.802Z,5.60
2018-09-19T21:51:43.976Z,5.60
2018-09-19T21:54:12.122Z,5.80
2018-09-19T21:56:40.251Z,5.00
2018-09-19T21:59:08.382Z,4.87
2018-09-19T22:01:40.417Z,4.20
2018-09-19T22:04:08.566Z,3.90
2018-09-19T22:06:36.739Z,4.13
2018-09-19T22:09:08.043Z,4.63
2018-09-19T22:11:36.186Z,4.13
2018-09-19T22:14:04.423Z,4.10
2018-09-19T22:16:32.558Z,4.20
2018-09-19T22:19:00.690Z,4.43
2018-09-19T22:21:28.831Z,4.17
2018-09-19T22:23:56.970Z,3.40
2018-09-19T22:26:25.120Z,4.20
2018-09-19T22:28:53.262Z,4.10
2018-09-19T22:31:21.399Z,4.00
2018-09-19T22:33:49.529Z,4.50
2018-09-19T22:36:17.679Z,3.90
2018-09-19T22:38:45.815Z,4.33
2018-09-19T22:41:13.955Z,3.97
2018-09-19T22:43:42.091Z,4.50
2018-09-19T22:46:10.231Z,4.00
2018-09-19T22:48:38.366Z,4.00
2018-09-19T22:51:06.519Z,4.37
2018-09-19T22:53:34.649Z,4.40
2018-09-19T22:56:02.797Z,3.90
2018-09-19T22:58:30.929Z,4.57
2018-09-19T23:00:59.082Z,4.27
2018-09-19T23:03:27.210Z,4.50
2018-09-19T23:05:55.338Z,4.37
2018-09-19T23:08:23.469Z,4.30
2018-09-19T23:10:51.595Z,4.10
2018-09-19T23:13:19.726Z,4.17
2018-09-19T23:15:47.862Z,4.43
2018-09-19T23:18:16.010Z,4.33
2018-09-19T23:20:44.134Z,5.10
2018-09-19T23:23:12.502Z,4.20
2018-09-19T23:25:40.622Z,4.40
2018-09-19T23:28:08.757Z,4.90
2018-09-19T23:30:36.988Z,5.30
2018-09-19T23:33:05.279Z,4.60
2018-09-19T23:35:33.407Z,4.20
2018-09-19T23:38:01.542Z,4.73
2018-09-19T23:40:29.661Z,4.43
2018-09-19T23:42:57.797Z,4.60
2018-09-19T23:45:25.952Z,5.67
2018-09-19T23:47:54.081Z,5.00
2018-09-19T23:50:22.309Z,5.10
2018-09-19T23:52:50.455Z,5.00
2018-09-19T23:55:18.584Z,5.23
2018-09-19T23:57:46.750Z,5.10
